createdAt,value
2018-12-09T00:01:42.971Z,98.00
2018-12-09T00:04:11.589Z,97.70
2018-12-09T00:06:40.084Z,97.80
2018-12-09T00:09:09.164Z,97.80
2018-12-09T00:11:38.006Z,97.80
2018-12-09T00:14:06.585Z,97.80
2018-12-09T00:16:35.155Z,97.70
2018-12-09T00:19:03.707Z,97.70
2018-12-09T00:21:32.328Z,97.60
2018-12-09T00:24:00.924Z,97.60
2018-12-09T00:26:29.464Z,97.60
2018-12-09T00:28:58.597Z,97.60
2018-12-09T00:31:27.106Z,97.60
2018-12-09T00:33:55.823Z,97.60
2018-12-09T00:36:24.995Z,97.50
2018-12-09T00:38:53.551Z,97.50
2018-12-09T00:41:22.111Z,97.50
2018-12-09T00:43:51.088Z,97.50
2018-12-09T00:46:20.469Z,97.20
2018-12-09T00:48:49.507Z,97.40
2018-12-09T00:51:18.127Z,97.50
2018-12-09T00:53:46.639Z,97.90
2018-12-09T00:56:15.163Z,97.60
2018-12-09T00:58:43.754Z,97.60
2018-12-09T01:01:12.887Z,97.70
2018-12-09T01:03:41.427Z,97.70
2018-12-09T01:06:11.202Z,97.70
2018-12-09T01:08:39.776Z,97.70
2018-12-09T01:11:08.342Z,97.60
2018-12-09T01:13:37.073Z,97.60
2018-12-09T01:16:05.626Z,97.60
2018-12-09T01:18:34.099Z,97.60
2018-12-09T01:21:03.325Z,97.60
2018-12-09T01:23:31.928Z,97.60
2018-12-09T01:26:00.610Z,97.60
2018-12-09T01:28:29.136Z,97.90
2018-12-09T01:30:57.966Z,97.50
2018-12-09T01:33:26.598Z,97.50
2018-12-09T01:35:56.527Z,97.50
2018-12-09T01:38:25.295Z,97.60
2018-12-09T01:40:54.761Z,97.60
2018-12-09T01:43:23.832Z,97.50
2018-12-09T01:45:52.428Z,97.60
2018-12-09T01:48:21.179Z,97.50
2018-12-09T01:50:50.056Z,97.50
2018-12-09T01:54:33.562Z,97.50
2018-12-09T01:57:02.849Z,97.60
2018-12-09T01:59:32.059Z,97.50
2018-12-09T02:02:00.720Z,97.60
2018-12-09T02:04:30.149Z,97.60
2018-12-09T02:06:59.001Z,97.60
2018-12-09T02:09:27.594Z,97.80
2018-12-09T02:11:56.221Z,97.70
2018-12-09T02:14:25.145Z,97.70
2018-12-09T02:16:54.308Z,97.70
2018-12-09T02:19:24.348Z,97.70
2018-12-09T02:21:53.540Z,97.80
2018-12-09T02:24:22.762Z,97.80
2018-12-09T02:26:52.094Z,98.10
2018-12-09T02:29:21.597Z,97.80
2018-12-09T02:31:50.806Z,98.00
2018-12-09T02:34:21.166Z,98.20
2018-12-09T02:36:49.870Z,98.20
2018-12-09T02:39:18.732Z,98.20
2018-12-09T02:41:48.233Z,98.20
2018-12-09T02:44:16.796Z,98.20
2018-12-09T02:46:46.551Z,98.20
2018-12-09T02:49:15.385Z,98.20
2018-12-09T02:51:44.135Z,98.20
2018-12-09T02:54:13.523Z,98.20
2018-12-09T02:56:42.118Z,98.50
2018-12-09T02:59:10.751Z,98.20
2018-12-09T03:01:39.426Z,98.40
2018-12-09T03:04:08.557Z,98.00
2018-12-09T03:06:37.505Z,97.80
2018-12-09T03:09:09.565Z,97.70
2018-12-09T03:11:38.120Z,97.60
2018-12-09T03:14:06.701Z,97.60
2018-12-09T03:16:36.053Z,97.60
2018-12-09T03:19:04.564Z,97.50
2018-12-09T03:21:33.168Z,97.60
2018-12-09T03:24:01.895Z,97.60
2018-12-09T03:26:30.449Z,97.50
2018-12-09T03:28:59.536Z,97.40
2018-12-09T03:31:28.852Z,97.40
2018-12-09T03:33:57.582Z,97.30
2018-12-09T03:36:26.203Z,97.20
2018-12-09T03:38:54.945Z,96.00
2018-12-09T03:41:23.764Z,95.50
2018-12-09T03:43:52.305Z,95.50
2018-12-09T03:46:20.860Z,95.00
2018-12-09T03:48:51.130Z,94.80
2018-12-09T03:51:20.118Z,94.90
2018-12-09T03:53:48.899Z,95.30
2018-12-09T04:11:07.986Z,95.40
2018-12-09T04:16:05.537Z,95.80
2018-12-09T04:18:34.864Z,95.70
2018-12-09T04:21:03.395Z,95.80
2018-12-09T04:23:31.979Z,95.90
2018-12-09T04:26:03.343Z,95.90
2018-12-09T04:28:31.995Z,95.90
2018-12-09T04:31:01.936Z,96.00
2018-12-09T04:33:30.807Z,96.00
2018-12-09T04:35:59.361Z,96.00
2018-12-09T04:38:27.966Z,96.10
2018-12-09T04:40:56.673Z,96.20
2018-12-09T04:43:25.486Z,96.20
2018-12-09T04:45:54.367Z,96.10
2018-12-09T04:48:23.403Z,96.10
2018-12-09T04:50:52.503Z,96.20
2018-12-09T04:53:21.162Z,96.20
2018-12-09T04:55:49.801Z,96.10
2018-12-09T04:58:19.177Z,96.20
2018-12-09T05:00:55.771Z,96.20
2018-12-09T05:03:24.397Z,96.20
2018-12-09T05:05:53.098Z,96.20
2018-12-09T05:08:21.699Z,96.20
2018-12-09T05:10:50.284Z,96.20
2018-12-09T05:13:18.836Z,96.20
2018-12-09T05:15:47.491Z,96.20
2018-12-09T05:18:16.135Z,96.20
2018-12-09T05:20:45.220Z,96.20
2018-12-09T05:23:14.061Z,96.20
2018-12-09T05:25:42.585Z,96.20
2018-12-09T05:28:11.205Z,96.20
2018-12-09T05:30:40.002Z,96.30
2018-12-09T05:33:09.566Z,96.30
2018-12-09T05:35:38.251Z,96.30
2018-12-09T05:38:06.881Z,96.50
2018-12-09T05:40:35.606Z,96.40
2018-12-09T05:43:04.220Z,96.50
2018-12-09T05:45:33.266Z,96.50
2018-12-09T05:48:01.793Z,96.50
2018-12-09T05:50:30.352Z,96.50
2018-12-09T05:52:59.004Z,96.50
2018-12-09T05:55:27.787Z,96.50
2018-12-09T05:57:56.448Z,96.50
2018-12-09T06:00:25.613Z,96.40
2018-12-09T06:02:56.264Z,96.40
2018-12-09T06:05:24.867Z,96.40
2018-12-09T06:07:54.938Z,96.40
2018-12-09T06:10:23.470Z,96.30
2018-12-09T06:12:52.144Z,96.20
2018-12-09T06:15:20.862Z,96.30
2018-12-09T06:17:49.433Z,96.40
2018-12-09T06:20:18.105Z,96.50
2018-12-09T06:22:46.695Z,96.60
2018-12-09T06:25:15.272Z,96.60
2018-12-09T06:27:43.822Z,96.80
2018-12-09T06:30:12.544Z,96.90
2018-12-09T06:32:42.044Z,97.30
2018-12-09T06:35:10.943Z,97.10
2018-12-09T06:37:39.465Z,97.30
2018-12-09T06:40:08.041Z,97.40
2018-12-09T06:42:37.134Z,97.50
2018-12-09T06:45:07.876Z,97.70
2018-12-09T06:47:37.661Z,97.80
2018-12-09T06:50:08.765Z,97.90
2018-12-09T06:52:37.313Z,97.90
2018-12-09T06:55:07.532Z,97.90
2018-12-09T06:57:36.108Z,97.90
2018-12-09T07:00:06.661Z,97.80
2018-12-09T07:02:35.218Z,97.80
2018-12-09T07:05:04.638Z,97.70
2018-12-09T07:07:33.627Z,97.60
2018-12-09T07:10:02.130Z,97.50
2018-12-09T07:12:30.708Z,97.50
2018-12-09T07:14:59.183Z,97.40
2018-12-09T07:17:28.088Z,97.40
2018-12-09T07:19:56.823Z,97.30
2018-12-09T07:22:26.435Z,97.60
2018-12-09T07:24:55.051Z,97.20
2018-12-09T07:27:25.027Z,97.20
2018-12-09T07:29:53.529Z,97.00
2018-12-09T07:32:22.311Z,96.90
2018-12-09T07:34:51.442Z,96.70
2018-12-09T07:39:48.416Z,96.50
2018-12-09T07:42:17.004Z,96.30
2018-12-09T07:44:45.613Z,96.20
2018-12-09T07:47:14.095Z,96.20
2018-12-09T08:41:37.608Z,96.10
2018-12-09T08:44:06.103Z,96.20
2018-12-09T08:46:34.815Z,96.20
2018-12-09T08:49:03.895Z,96.10
2018-12-09T08:51:33.742Z,96.40
2018-12-09T08:54:02.829Z,96.10
2018-12-09T08:56:32.104Z,96.20
2018-12-09T09:08:53.420Z,96.20
2018-12-09T09:13:50.794Z,96.30
2018-12-09T09:16:19.307Z,96.40
2018-12-09T09:18:47.813Z,96.20
2018-12-09T09:21:16.343Z,96.40
2018-12-09T09:23:44.979Z,96.30
2018-12-09T09:28:43.003Z,96.30
2018-12-09T09:31:11.700Z,96.20
2018-12-09T09:33:40.893Z,96.20
2018-12-09T09:36:09.914Z,96.50
2018-12-09T09:38:38.462Z,96.10
2018-12-09T09:41:07.071Z,96.20
2018-12-09T09:43:35.679Z,96.10
2018-12-09T09:46:04.206Z,96.10
2018-12-09T09:48:33.021Z,96.00
2018-12-09T09:51:01.516Z,96.00
2018-12-09T09:53:30.643Z,96.10
2018-12-09T09:55:59.200Z,96.10
2018-12-09T09:58:28.715Z,96.10
2018-12-09T10:00:58.448Z,96.00
2018-12-09T10:03:26.961Z,96.10
2018-12-09T10:05:55.458Z,96.10
2018-12-09T10:13:22.605Z,96.10
2018-12-09T10:15:51.191Z,96.10
2018-12-09T10:20:47.980Z,96.10
2018-12-09T10:23:16.495Z,96.00
2018-12-09T10:25:45.664Z,96.00
2018-12-09T10:28:14.138Z,95.90
2018-12-09T10:30:42.640Z,95.80
2018-12-09T10:33:11.164Z,95.80
2018-12-09T10:35:39.709Z,95.80
2018-12-09T10:38:08.776Z,95.60
2018-12-09T10:40:37.261Z,95.60
2018-12-09T10:43:05.803Z,95.50
2018-12-09T10:45:34.384Z,95.40
2018-12-09T10:48:03.069Z,95.30
2018-12-09T10:50:31.672Z,95.40
2018-12-09T10:53:00.153Z,95.20
2018-12-09T10:55:29.280Z,94.90
2018-12-09T10:57:57.828Z,94.70
2018-12-09T11:00:31.690Z,94.70
2018-12-09T11:03:00.819Z,94.70
2018-12-09T11:05:29.299Z,94.40
2018-12-09T11:07:57.856Z,94.10
2018-12-09T11:10:26.357Z,94.00
2018-12-09T11:12:54.840Z,94.00
2018-12-09T11:15:23.613Z,94.10
2018-12-09T11:17:52.127Z,94.00
2018-12-09T11:20:20.872Z,93.40
2018-12-09T11:22:49.370Z,93.30
2018-12-09T11:25:17.966Z,93.70
2018-12-09T11:27:46.603Z,93.30
2018-12-09T11:30:16.320Z,93.50
2018-12-09T11:32:45.486Z,93.00
2018-12-09T11:35:14.598Z,92.90
2018-12-09T11:37:43.647Z,92.90
2018-12-09T11:40:12.575Z,92.70
2018-12-09T11:42:41.181Z,92.70
2018-12-09T11:45:09.940Z,92.60
2018-12-09T11:47:39.826Z,92.90
2018-12-09T11:50:09.403Z,92.30
2018-12-09T11:52:38.215Z,92.00
2018-12-09T11:55:07.370Z,92.20
2018-12-09T11:57:36.439Z,92.00
2018-12-09T12:00:08.892Z,92.10
2018-12-09T12:02:37.991Z,91.90
2018-12-09T12:05:07.776Z,91.80
2018-12-09T12:07:36.338Z,91.60
2018-12-09T12:10:06.093Z,91.30
2018-12-09T12:12:34.633Z,91.00
2018-12-09T12:15:04.448Z,90.80
2018-12-09T12:17:33.748Z,90.50
2018-12-09T12:20:03.036Z,90.30
2018-12-09T12:22:32.899Z,90.50
2018-12-09T12:25:01.495Z,90.20
2018-12-09T12:27:30.954Z,90.30
2018-12-09T12:29:59.474Z,90.40
2018-12-09T12:32:28.105Z,90.20
2018-12-09T12:34:56.630Z,90.00
2018-12-09T12:37:25.273Z,90.00
2018-12-09T12:39:54.262Z,90.00
2018-12-09T12:42:22.772Z,90.00
2018-12-09T12:44:51.877Z,89.70
2018-12-09T12:47:20.589Z,90.00
2018-12-09T12:49:49.525Z,90.00
2018-12-09T12:52:18.564Z,89.40
2018-12-09T12:54:47.049Z,89.00
2018-12-09T12:57:15.569Z,89.60
2018-12-09T12:59:44.491Z,89.40
2018-12-09T13:02:12.957Z,89.10
2018-12-09T13:04:41.727Z,89.10
2018-12-09T13:07:10.302Z,89.20
2018-12-09T13:09:38.824Z,88.80
2018-12-09T13:12:07.413Z,88.50
2018-12-09T13:14:36.236Z,88.40
2018-12-09T13:17:05.197Z,89.00
2018-12-09T13:19:33.755Z,88.30
2018-12-09T13:22:02.271Z,87.80
2018-12-09T13:24:30.766Z,88.00
2018-12-09T13:27:00.362Z,88.30
2018-12-09T13:29:29.018Z,88.20
2018-12-09T13:31:58.048Z,88.00
2018-12-09T13:34:26.751Z,88.00
2018-12-09T13:36:55.653Z,88.50
2018-12-09T13:39:24.255Z,88.50
2018-12-09T13:41:53.802Z,88.20
2018-12-09T13:44:22.344Z,88.50
2018-12-09T13:46:50.852Z,88.90
2018-12-09T13:49:19.419Z,88.70
2018-12-09T13:51:48.354Z,88.90
2018-12-09T13:54:17.026Z,88.40
2018-12-09T13:56:45.668Z,88.90
2018-12-09T13:59:14.526Z,88.90
2018-12-09T14:01:43.777Z,88.50
2018-12-09T14:04:13.251Z,88.40
2018-12-09T14:06:42.732Z,88.80
2018-12-09T14:09:11.878Z,88.50
2018-12-09T14:11:40.970Z,88.00
2018-12-09T14:14:10.547Z,87.90
2018-12-09T14:16:39.077Z,88.20
2018-12-09T14:19:08.212Z,88.10
2018-12-09T14:21:37.621Z,88.40
2018-12-09T14:24:06.156Z,87.70
2018-12-09T14:26:34.671Z,88.10
2018-12-09T14:29:03.519Z,88.20
2018-12-09T14:31:34.101Z,88.00
2018-12-09T14:34:03.482Z,88.00
2018-12-09T14:36:32.028Z,88.40
2018-12-09T14:39:00.531Z,88.60
2018-12-09T14:41:29.044Z,88.70
2018-12-09T14:43:57.880Z,89.70
2018-12-09T14:46:26.491Z,89.20
2018-12-09T14:48:55.024Z,89.20
2018-12-09T14:51:23.848Z,89.00
2018-12-09T14:53:52.312Z,89.20
2018-12-09T14:56:20.959Z,88.90
2018-12-09T14:58:50.195Z,88.70
2018-12-09T15:01:19.718Z,88.30
2018-12-09T15:03:48.520Z,88.80
2018-12-09T15:06:17.053Z,88.50
2018-12-09T15:08:45.791Z,88.30
2018-12-09T15:11:14.340Z,88.20
2018-12-09T15:13:44.055Z,89.10
2018-12-09T15:16:13.380Z,88.10
2018-12-09T15:18:41.842Z,87.80
2018-12-09T15:21:11.427Z,87.90
2018-12-09T15:23:39.922Z,89.30
2018-12-09T15:26:08.400Z,89.20
2018-12-09T15:28:36.991Z,89.30
2018-12-09T15:31:05.485Z,89.60
2018-12-09T15:33:34.073Z,90.00
2018-12-09T15:36:02.619Z,90.20
2018-12-09T15:38:31.880Z,90.30
2018-12-09T15:41:00.398Z,90.40
2018-12-09T15:43:28.945Z,90.60
2018-12-09T15:45:58.123Z,90.70
2018-12-09T15:48:27.575Z,90.80
2018-12-09T15:50:56.860Z,90.50
2018-12-09T15:53:25.457Z,90.80
2018-12-09T15:55:54.085Z,90.70
2018-12-09T15:58:22.811Z,90.80
2018-12-09T16:00:55.597Z,90.80
2018-12-09T16:03:24.165Z,90.90
2018-12-09T16:05:53.371Z,91.00
2018-12-09T16:08:22.755Z,91.00
2018-12-09T16:10:51.316Z,91.00
2018-12-09T16:13:20.479Z,91.00
2018-12-09T16:15:48.955Z,90.90
2018-12-09T16:18:17.481Z,91.00
2018-12-09T16:20:46.057Z,91.00
2018-12-09T16:23:14.937Z,91.00
2018-12-09T16:25:43.694Z,91.10
2018-12-09T16:28:13.720Z,91.10
2018-12-09T16:30:42.262Z,91.10
2018-12-09T16:33:11.012Z,91.10
2018-12-09T16:35:39.648Z,91.40
2018-12-09T16:38:08.149Z,91.30
2018-12-09T16:40:36.686Z,91.30
2018-12-09T16:43:05.303Z,91.40
2018-12-09T16:45:34.142Z,91.40
2018-12-09T16:48:03.821Z,91.40
2018-12-09T16:50:32.342Z,91.40
2018-12-09T16:53:00.826Z,91.40
2018-12-09T16:55:29.926Z,91.40
2018-12-09T16:57:58.761Z,91.30
2018-12-09T17:00:27.270Z,91.40
2018-12-09T17:02:56.434Z,91.50
2018-12-09T17:05:24.908Z,91.50
2018-12-09T17:07:54.796Z,91.50
2018-12-09T17:10:23.837Z,91.50
2018-12-09T17:12:52.915Z,91.60
2018-12-09T17:15:21.501Z,91.50
2018-12-09T17:17:50.116Z,91.60
2018-12-09T17:20:18.652Z,91.60
2018-12-09T17:22:47.595Z,91.60
2018-12-09T17:25:16.235Z,91.70
2018-12-09T17:27:44.783Z,91.60
2018-12-09T17:30:13.365Z,91.70
2018-12-09T17:32:41.849Z,91.80
2018-12-09T17:35:10.499Z,91.80
2018-12-09T17:37:39.216Z,91.80
2018-12-09T17:40:09.770Z,91.80
2018-12-09T17:42:38.348Z,91.90
2018-12-09T17:45:08.347Z,92.00
2018-12-09T17:47:38.035Z,92.00
2018-12-09T17:50:07.360Z,92.00
2018-12-09T17:52:35.837Z,92.00
2018-12-09T17:55:05.042Z,92.10
2018-12-09T17:57:33.547Z,92.10
2018-12-09T18:00:02.223Z,92.10
2018-12-09T18:02:30.845Z,92.10
2018-12-09T18:04:59.341Z,92.50
2018-12-09T18:07:27.816Z,92.20
2018-12-09T18:09:57.180Z,92.20
2018-12-09T18:12:25.793Z,92.20
2018-12-09T18:14:54.285Z,92.20
2018-12-09T18:17:22.813Z,92.20
2018-12-09T18:19:51.321Z,92.60
2018-12-09T18:22:19.839Z,92.30
2018-12-09T18:24:49.250Z,92.30
2018-12-09T18:27:18.480Z,92.30
2018-12-09T18:29:46.954Z,92.30
2018-12-09T18:32:16.622Z,92.40
2018-12-09T18:34:45.957Z,92.50
2018-12-09T18:37:15.351Z,92.50
2018-12-09T18:39:43.990Z,92.50
2018-12-09T18:42:13.476Z,92.60
2018-12-09T18:44:42.388Z,92.60
2018-12-09T18:47:11.660Z,92.50
2018-12-09T18:49:40.247Z,92.50
2018-12-09T18:52:08.735Z,92.60
2018-12-09T18:54:37.311Z,92.30
2018-12-09T18:57:05.844Z,92.60
2018-12-09T18:59:35.119Z,92.50
2018-12-09T19:02:04.098Z,92.60
2018-12-09T19:04:32.727Z,92.60
2018-12-09T19:07:01.348Z,92.60
2018-12-09T19:09:30.030Z,92.60
2018-12-09T19:11:58.947Z,92.60
2018-12-09T19:14:27.694Z,92.60
2018-12-09T19:16:56.443Z,92.60
2018-12-09T19:19:24.940Z,92.70
2018-12-09T19:21:53.497Z,92.70
2018-12-09T19:24:21.996Z,92.70
2018-12-09T19:26:50.862Z,92.70
2018-12-09T19:29:19.948Z,92.70
2018-12-09T19:31:48.727Z,92.70
2018-12-09T19:34:17.193Z,92.70
2018-12-09T19:36:45.674Z,92.70
2018-12-09T19:39:14.305Z,92.70
2018-12-09T19:41:43.421Z,92.80
2018-12-09T19:44:12.071Z,92.80
2018-12-09T19:46:40.635Z,92.90
2018-12-09T19:49:09.887Z,92.90
2018-12-09T19:51:38.929Z,92.90
2018-12-09T19:54:07.531Z,93.00
2018-12-09T19:56:36.334Z,92.70
2018-12-09T19:59:04.949Z,92.90
2018-12-09T20:01:34.156Z,92.90
2018-12-09T20:04:03.779Z,92.90
2018-12-09T20:06:32.902Z,93.00
2018-12-09T20:11:30.276Z,93.00
2018-12-09T20:14:00.358Z,93.30
2018-12-09T20:16:29.027Z,93.20
2018-12-09T20:18:57.537Z,93.20
2018-12-09T20:21:26.589Z,93.20
2018-12-09T20:23:55.140Z,93.20
2018-12-09T20:26:23.611Z,93.20
2018-12-09T20:28:52.258Z,93.30
2018-12-09T20:31:20.783Z,93.20
2018-12-09T20:33:49.311Z,93.30
2018-12-09T20:36:17.810Z,93.30
2018-12-09T20:38:46.333Z,93.30
2018-12-09T20:41:15.600Z,93.40
2018-12-09T20:43:44.748Z,93.40
2018-12-09T20:46:13.334Z,93.50
2018-12-09T20:48:41.984Z,93.60
2018-12-09T20:51:10.490Z,93.60
2018-12-09T20:53:39.111Z,93.60
2018-12-09T20:56:07.738Z,93.50
2018-12-09T20:58:36.234Z,93.50
2018-12-09T21:01:05.520Z,93.50
2018-12-09T21:03:34.015Z,93.60
2018-12-09T21:06:02.941Z,93.50
2018-12-09T21:08:31.502Z,93.50
2018-12-09T21:11:00.639Z,93.60
2018-12-09T21:13:29.140Z,93.60
2018-12-09T21:15:57.858Z,93.60
2018-12-09T21:18:26.522Z,93.60
2018-12-09T21:20:54.986Z,93.60
2018-12-09T21:23:23.642Z,93.60
2018-12-09T21:25:52.123Z,93.70
2018-12-09T21:28:20.640Z,93.70
2018-12-09T21:30:49.686Z,93.70
2018-12-09T21:33:18.204Z,93.70
2018-12-09T21:35:47.512Z,93.80
2018-12-09T21:38:16.270Z,93.80
2018-12-09T21:40:44.756Z,93.80
2018-12-09T21:43:13.362Z,93.80
2018-12-09T21:45:41.830Z,93.80
2018-12-09T21:48:12.449Z,93.80
2018-12-09T21:50:40.996Z,93.90
2018-12-09T21:53:10.051Z,93.90
2018-12-09T21:55:39.322Z,93.90
2018-12-09T21:58:09.172Z,93.90
2018-12-09T22:00:37.782Z,93.90
2018-12-09T22:03:08.715Z,94.00
2018-12-09T22:05:38.540Z,94.00
2018-12-09T22:08:07.778Z,94.10
2018-12-09T22:10:36.382Z,94.30
2018-12-09T22:13:05.073Z,94.10
2018-12-09T22:15:33.560Z,94.10
2018-12-09T22:18:03.482Z,94.10
2018-12-09T22:20:32.106Z,93.90
2018-12-09T22:23:00.616Z,94.30
2018-12-09T22:25:29.175Z,94.20
2018-12-09T22:27:57.700Z,94.20
2018-12-09T22:30:26.271Z,94.20
2018-12-09T22:32:55.357Z,94.30
2018-12-09T22:35:24.784Z,94.30
2018-12-09T22:37:53.385Z,94.40
2018-12-09T22:40:22.332Z,94.40
2018-12-09T22:42:51.269Z,94.40
2018-12-09T22:45:19.733Z,94.40
2018-12-09T22:47:48.312Z,94.40
2018-12-09T22:50:16.944Z,94.50
2018-12-09T22:52:45.446Z,94.50
2018-12-09T22:55:14.071Z,94.60
2018-12-09T22:57:43.750Z,94.60
2018-12-09T23:00:24.219Z,94.60
2018-12-09T23:02:58.416Z,94.70
2018-12-09T23:05:27.308Z,94.70
2018-12-09T23:07:56.161Z,94.70
2018-12-09T23:10:25.380Z,94.60
2018-12-09T23:12:54.040Z,94.60
2018-12-09T23:15:22.506Z,94.60
2018-12-09T23:17:51.152Z,94.70
2018-12-09T23:20:20.148Z,94.70
2018-12-09T23:22:48.586Z,94.60
2018-12-09T23:25:17.061Z,94.70
2018-12-09T23:27:45.540Z,94.70
2018-12-09T23:30:14.510Z,94.80
2018-12-09T23:32:43.088Z,94.80
2018-12-09T23:35:11.654Z,94.70
2018-12-09T23:37:40.205Z,94.80
2018-12-09T23:40:08.867Z,94.80
2018-12-09T23:42:37.431Z,94.80
2018-12-09T23:45:07.818Z,94.90
2018-12-09T23:47:36.364Z,95.20
2018-12-09T23:50:05.495Z,95.00
2018-12-09T23:52:33.962Z,95.20
2018-12-09T23:55:03.080Z,95.20
2018-12-09T23:57:31.616Z,95.10
